Alta Hourly Wx Roundup
ALTA 4/29/2017
click here for graph

        DATE  TIME   h2o  Snow Temp F Temp F Temp F  RH %  RH %  RH % W_Spd W_Dir W_Gust W_Spd W_Dir W_Gust Baldy Baldy Baldy   h2o
                    9664  9664    8550   10500   11068  8550 10500 11068  8550  8550   8550 10500 10500  10500   Spd   Dir  Gust  8550
                   (1HR)  12HR     AVG     AVG     AVG   AVG   AVG   AVG   AVG   AVG    MAX   AVG   AVG    MAX   AVG   AVG   MAX (1HR)

   4/29/2017 19:00  0.00   0.0      33      24      17    59    96    91    10   138     23     4   335     16     8    56    18  0.00
   4/29/2017 18:00  0.01   0.0      36      25      17    53    97    91     9   152     18     6   331     17    12     7    25  0.00
   4/29/2017 17:00  0.00   0.0      38      26      17    47    98    91     7   182     18     7   334     21    13     2    25  0.00
   4/29/2017 16:00  0.01   0.0      34      26      17    50    96    91    10   122     23     5   338     20     9    46    24  0.00
   4/29/2017 15:00  0.00   0.0      35      27      16    48    96    90     9   118     22     6    15     17    13    31    30  0.00
   4/29/2017 14:00  0.00   0.0      35      26      18    45    96    91     9   129     20     7    31     19     9    27    22  0.00
   4/29/2017 13:00  0.00   0.0      33      24      18    49    96    91     9   124     18     8    38     24     6    23    19  0.00
   4/29/2017 12:00  0.00   0.0      31      23      15    53    96    90     9   110     21    16    40     31    10    21    28  0.00
   4/29/2017 11:00  0.01   0.0      30      20      13    55    95    89     9   116     23    17    36     34    11    12    32  0.00
   4/29/2017 10:00  0.00   0.0      28      17      12    57    93    88     9   104     21    21    36     46    14    34    31  0.00
   4/29/2017 09:00  0.00   2.9      23      15      10    68    92    87    11   132     23    15    37     31    14    26    34  0.00
   4/29/2017 08:00  0.00   2.9      22      11       8    69    90    86     7   125     21    14    48     32    17    52    39  0.00
   4/29/2017 07:00  0.00   3.0      21      11       8    80    90    86     9   126     29    16    48     29    16    43    39  0.00
   4/29/2017 06:00  0.00   2.9      21      12       8    82    91    86    12   141     28    12    41     26    14    41    35  0.00
   4/29/2017 05:00  0.00   2.9      22      12       9    76    91    87    10   142     31    10    33     22    12    37    33  0.01
   4/29/2017 04:00  0.00   2.9      22      13       9    83    91    87     8   146     20     9    37     20    14    45    35  0.00
   4/29/2017 03:00  0.00   2.9      23      14      10    82    92    87    10   144     24     9    40     25    13    42    27  0.00
   4/29/2017 02:00  0.00   2.9      23      14      11    84    92    88    11   138     23    12    38     28    12    43    29  0.00
   4/29/2017 01:00  0.00   2.9      23      14      11    86    92    88    10   160     21     8    31     19    14    41    28  0.01
   4/28/2017 24:00  0.00   3.0      23      14      11    90    92    88    11   161     21    10    41     27    14    51    33  0.01
   4/28/2017 23:00  0.02   3.0      24      15      11    93    92    88    10   143     23    13    41     32    15    40    32  0.02
   4/28/2017 22:00  0.05   2.6      25      17      13    92    93    89    10   144     22     9    25     25    11    37    24  0.07
   4/28/2017 21:00  0.06   1.7      26      17      14    91    94    89     5   199     14     6   337     18    16   344    32  0.04
   4/28/2017 20:00  0.01   0.0      27      17      13    89    94    89     5   231     17    12   314     22    24   330    38  0.01


click here for graph